createdAt,value
2019-02-12T00:01:50.083Z,4.60
2019-02-12T00:04:20.464Z,4.50
2019-02-12T00:06:50.785Z,4.40
2019-02-12T00:09:21.385Z,4.50
2019-02-12T00:11:51.762Z,4.40
2019-02-12T00:14:22.148Z,4.40
2019-02-12T00:16:53.802Z,4.40
2019-02-12T00:19:25.200Z,4.40
2019-02-12T00:21:57.615Z,4.40
2019-02-12T00:24:29.079Z,4.40
2019-02-12T00:26:59.456Z,4.40
2019-02-12T00:29:29.841Z,4.40
2019-02-12T00:32:00.976Z,4.40
2019-02-12T00:34:31.302Z,4.40
2019-02-12T00:37:02.460Z,4.40
2019-02-12T00:39:33.088Z,4.40
2019-02-12T00:42:04.256Z,4.10
2019-02-12T00:44:34.681Z,4.10
2019-02-12T00:47:05.080Z,4.20
2019-02-12T00:49:35.405Z,4.30
2019-02-12T00:52:05.836Z,4.30
2019-02-12T00:54:36.320Z,4.40
2019-02-12T00:57:07.741Z,4.30
2019-02-12T00:59:38.913Z,4.30
2019-02-12T01:02:10.270Z,4.30
2019-02-12T01:04:47.998Z,4.10
2019-02-12T01:07:18.433Z,4.20
2019-02-12T01:09:48.761Z,4.10
2019-02-12T01:12:20.172Z,4.20
2019-02-12T01:14:50.557Z,4.20
2019-02-12T01:17:21.005Z,4.30
2019-02-12T01:19:53.437Z,4.30
2019-02-12T01:22:23.894Z,4.40
2019-02-12T01:24:54.458Z,4.20
2019-02-12T01:27:24.898Z,4.20
2019-02-12T01:29:55.281Z,4.20
2019-02-12T01:32:25.598Z,4.20
2019-02-12T01:34:56.038Z,4.00
2019-02-12T01:37:26.367Z,4.00
2019-02-12T01:39:56.746Z,4.00
2019-02-12T01:42:27.199Z,4.00
2019-02-12T01:44:57.515Z,3.80
2019-02-12T01:47:27.874Z,3.70
2019-02-12T01:49:59.276Z,3.70
2019-02-12T01:52:29.604Z,3.70
2019-02-12T01:55:01.064Z,3.60
2019-02-12T01:57:31.460Z,3.60
2019-02-12T02:02:44.755Z,3.40
2019-02-12T02:05:15.126Z,3.60
2019-02-12T02:07:45.508Z,3.50
2019-02-12T02:10:16.276Z,3.60
2019-02-12T02:13:09.029Z,3.50
2019-02-12T02:15:44.591Z,3.50
2019-02-12T02:18:15.227Z,3.70
2019-02-12T02:20:45.628Z,3.60
2019-02-12T02:23:19.127Z,3.50
2019-02-12T02:25:49.509Z,3.50
2019-02-12T02:28:20.847Z,3.50
2019-02-12T02:30:51.228Z,3.50
2019-02-12T02:33:21.553Z,3.60
2019-02-12T02:35:53.984Z,3.70
2019-02-12T02:38:25.197Z,3.60
2019-02-12T02:40:55.575Z,3.50
2019-02-12T02:43:26.012Z,3.60
2019-02-12T02:45:56.405Z,3.60
2019-02-12T02:48:27.611Z,3.70
2019-02-12T02:50:58.005Z,3.70
2019-02-12T02:53:28.428Z,3.70
2019-02-12T02:55:58.748Z,3.80
2019-02-12T02:58:29.899Z,3.70
2019-02-12T03:01:00.337Z,3.60
2019-02-12T03:03:30.720Z,3.70
2019-02-12T03:06:01.099Z,3.70
2019-02-12T03:08:32.558Z,3.70
2019-02-12T03:11:02.960Z,3.40
2019-02-12T03:13:34.302Z,3.50
2019-02-12T03:16:04.676Z,3.50
2019-02-12T03:18:35.065Z,3.60
2019-02-12T03:21:05.729Z,3.60
2019-02-12T03:23:57.566Z,3.60
2019-02-12T03:26:27.938Z,3.50
2019-02-12T03:28:59.087Z,3.50
2019-02-12T03:31:29.591Z,3.50
2019-02-12T03:34:00.146Z,3.40
2019-02-12T03:36:31.201Z,3.60
2019-02-12T03:39:01.593Z,3.60
2019-02-12T03:41:32.754Z,3.40
2019-02-12T03:44:03.896Z,3.30
2019-02-12T03:46:35.041Z,3.30
2019-02-12T03:49:06.193Z,3.20
2019-02-12T03:51:36.640Z,3.20
2019-02-12T03:54:09.067Z,3.30
2019-02-12T03:56:40.400Z,3.30
2019-02-12T03:59:10.829Z,3.10
2019-02-12T04:01:41.152Z,3.30
2019-02-12T04:04:11.534Z,3.10
2019-02-12T04:06:41.969Z,3.10
2019-02-12T04:09:12.421Z,3.10
2019-02-12T04:11:43.763Z,3.10
2019-02-12T04:14:14.439Z,3.00
2019-02-12T04:16:46.878Z,3.10
2019-02-12T04:19:38.635Z,3.10
2019-02-12T04:22:09.200Z,3.10
2019-02-12T04:24:39.524Z,3.00
2019-02-12T04:27:10.030Z,3.10
2019-02-12T04:29:40.671Z,3.10
2019-02-12T04:32:11.805Z,3.10
2019-02-12T04:34:42.239Z,3.10
2019-02-12T04:37:13.373Z,2.80
2019-02-12T04:39:44.465Z,2.90
2019-02-12T04:42:16.879Z,2.90
2019-02-12T04:44:47.268Z,3.00
2019-02-12T04:47:20.716Z,3.00
2019-02-12T04:49:51.898Z,3.10
2019-02-12T04:52:31.606Z,3.10
2019-02-12T04:54:52.595Z,2.90
2019-02-12T04:57:23.253Z,2.90
2019-02-12T04:59:54.405Z,3.10
2019-02-12T05:02:24.788Z,3.00
2019-02-12T05:04:55.195Z,3.10
2019-02-12T05:07:25.565Z,3.20
2019-02-12T05:09:56.718Z,3.10
2019-02-12T05:12:27.937Z,3.00
2019-02-12T05:14:58.603Z,3.00
2019-02-12T05:17:29.887Z,2.70
2019-02-12T05:20:02.316Z,2.70
2019-02-12T05:22:42.888Z,2.80
2019-02-12T05:25:03.537Z,2.90
2019-02-12T05:27:33.955Z,3.00
2019-02-12T05:30:05.375Z,2.80
2019-02-12T05:32:36.199Z,2.80
2019-02-12T05:35:07.343Z,2.80
2019-02-12T05:37:38.495Z,2.60
2019-02-12T05:40:09.625Z,2.60
2019-02-12T05:42:40.701Z,2.60
2019-02-12T05:47:54.058Z,2.70
2019-02-12T05:50:25.448Z,2.60
2019-02-12T05:52:58.159Z,2.80
2019-02-12T05:55:28.537Z,2.60
2019-02-12T05:57:58.925Z,2.60
2019-02-12T06:00:29.304Z,2.70
2019-02-12T06:02:59.686Z,2.60
2019-02-12T06:05:30.109Z,2.60
2019-02-12T06:08:00.576Z,2.70
2019-02-12T06:10:31.658Z,2.70
2019-02-12T06:13:03.112Z,2.70
2019-02-12T06:15:34.199Z,2.80
2019-02-12T06:18:04.601Z,2.70
2019-02-12T06:20:35.047Z,2.80
2019-02-12T06:23:05.436Z,2.80
2019-02-12T06:25:35.816Z,2.80
2019-02-12T06:28:27.664Z,2.80
2019-02-12T06:30:57.881Z,2.80
2019-02-12T06:33:28.271Z,2.70
2019-02-12T06:35:59.723Z,2.50
2019-02-12T06:38:30.103Z,2.60
2019-02-12T06:41:00.664Z,2.70
2019-02-12T06:43:31.003Z,2.80
2019-02-12T06:46:01.449Z,3.20
2019-02-12T06:48:32.011Z,4.30
2019-02-12T06:51:03.735Z,3.20
2019-02-12T06:53:53.219Z,2.90
2019-02-12T06:56:43.172Z,2.90
2019-02-12T06:59:13.539Z,2.70
2019-02-12T07:01:43.944Z,2.80
2019-02-12T07:04:18.610Z,2.80
2019-02-12T07:06:51.818Z,2.80
2019-02-12T07:09:27.631Z,2.80
2019-02-12T07:12:17.498Z,3.00
2019-02-12T07:14:55.314Z,3.10
2019-02-12T07:20:43.285Z,3.20
2019-02-12T07:23:54.811Z,3.10
2019-02-12T07:26:58.286Z,3.20
2019-02-12T07:29:29.688Z,3.20
2019-02-12T07:32:47.634Z,2.70
2019-02-12T07:35:18.225Z,2.70
2019-02-12T07:37:54.317Z,3.10
2019-02-12T07:40:24.706Z,3.70
2019-02-12T07:43:06.105Z,3.40
2019-02-12T07:45:48.138Z,3.30
2019-02-12T07:48:30.160Z,3.30
2019-02-12T07:51:19.076Z,3.40
2019-02-12T07:57:18.676Z,3.40
2019-02-12T07:59:56.963Z,3.50
2019-02-12T08:02:34.470Z,3.40
2019-02-12T08:05:10.664Z,3.40
2019-02-12T08:08:04.283Z,3.40
2019-02-12T08:11:06.515Z,3.20
2019-02-12T08:13:45.600Z,3.60
2019-02-12T08:16:37.885Z,3.50
2019-02-12T08:19:16.896Z,3.60
2019-02-12T08:22:10.117Z,3.50
2019-02-12T08:25:01.998Z,3.70
2019-02-12T08:27:52.442Z,3.80
2019-02-12T08:30:31.008Z,3.60
2019-02-12T08:33:09.183Z,3.60
2019-02-12T08:35:57.394Z,3.70
2019-02-12T08:38:25.216Z,3.70
2019-02-12T08:41:09.398Z,3.60
2019-02-12T08:44:00.707Z,3.50
2019-02-12T08:46:33.723Z,3.50
2019-02-12T08:49:23.483Z,3.60
2019-02-12T08:52:02.492Z,3.70
2019-02-12T08:55:10.379Z,3.70
2019-02-12T08:58:03.594Z,3.60
2019-02-12T09:00:47.637Z,3.80
2019-02-12T09:03:35.126Z,3.90
2019-02-12T09:06:49.885Z,3.80
2019-02-12T09:09:58.838Z,3.60
2019-02-12T09:15:50.936Z,3.70
2019-02-12T09:18:27.207Z,3.70
2019-02-12T09:21:00.509Z,3.80
2019-02-12T09:24:06.849Z,3.80
2019-02-12T09:27:06.469Z,3.80
2019-02-12T09:29:53.221Z,4.00
2019-02-12T09:32:43.062Z,4.20
2019-02-12T09:35:24.008Z,4.10
2019-02-12T09:38:14.388Z,4.10
2019-02-12T09:40:52.606Z,4.20
2019-02-12T09:43:42.753Z,3.80
2019-02-12T09:47:01.673Z,4.10
2019-02-12T09:49:46.912Z,4.40
2019-02-12T09:52:33.809Z,4.40
2019-02-12T09:55:38.117Z,4.50
2019-02-12T09:58:14.082Z,4.50
2019-02-12T10:04:08.503Z,4.50
2019-02-12T10:06:58.415Z,4.50
2019-02-12T10:09:31.511Z,4.70
2019-02-12T10:12:18.818Z,4.60
2019-02-12T10:14:49.429Z,4.80
2019-02-12T10:17:57.586Z,4.80
2019-02-12T10:20:45.508Z,4.80
2019-02-12T10:23:54.205Z,4.80
2019-02-12T10:27:08.407Z,4.60
2019-02-12T10:29:53.322Z,4.70
2019-02-12T10:32:25.051Z,4.70
2019-02-12T10:34:55.378Z,4.50
2019-02-12T10:37:25.967Z,4.70
2019-02-12T10:39:56.409Z,4.90
2019-02-12T10:42:27.511Z,4.80
2019-02-12T10:44:57.887Z,4.70
2019-02-12T10:47:28.311Z,4.80
2019-02-12T10:49:59.669Z,5.00
2019-02-12T10:52:29.084Z,5.10
2019-02-12T10:54:59.533Z,5.10
2019-02-12T10:57:32.921Z,5.10
2019-02-12T11:00:03.488Z,5.10
2019-02-12T11:02:33.941Z,5.10
2019-02-12T11:05:05.084Z,5.20
2019-02-12T11:07:35.946Z,5.20
2019-02-12T11:10:06.325Z,5.30
2019-02-12T11:12:36.714Z,5.30
2019-02-12T11:15:07.099Z,5.30
2019-02-12T11:17:38.262Z,5.40
2019-02-12T11:20:09.433Z,5.50
2019-02-12T11:22:40.179Z,5.50
2019-02-12T11:25:30.694Z,5.50
2019-02-12T11:28:01.071Z,5.50
2019-02-12T11:30:32.157Z,5.70
2019-02-12T11:33:09.916Z,5.60
2019-02-12T11:35:40.420Z,5.80
2019-02-12T11:38:11.590Z,5.90
2019-02-12T11:40:42.029Z,5.80
2019-02-12T11:43:12.415Z,5.80
2019-02-12T11:45:42.805Z,5.80
2019-02-12T11:48:17.960Z,5.90
2019-02-12T11:50:47.736Z,5.90
2019-02-12T11:53:18.168Z,5.90
2019-02-12T11:55:48.552Z,6.10
2019-02-12T11:58:19.956Z,6.20
2019-02-12T12:00:50.862Z,6.20
2019-02-12T12:03:21.187Z,6.30
2019-02-12T12:05:51.573Z,6.30
2019-02-12T12:08:22.037Z,6.30
2019-02-12T12:10:52.643Z,6.20
2019-02-12T12:13:23.205Z,6.20
2019-02-12T12:15:53.595Z,6.20
2019-02-12T12:18:24.147Z,6.20
2019-02-12T12:20:55.295Z,6.30
2019-02-12T12:23:26.373Z,6.40
2019-02-12T12:25:56.760Z,6.40
2019-02-12T12:28:27.851Z,6.30
2019-02-12T12:31:03.392Z,6.30
2019-02-12T12:33:33.717Z,6.40
2019-02-12T12:36:06.201Z,6.50
2019-02-12T12:38:36.621Z,6.60
2019-02-12T12:41:06.948Z,6.70
2019-02-12T12:43:37.265Z,6.90
2019-02-12T12:46:07.782Z,7.00
2019-02-12T12:48:40.080Z,6.90
2019-02-12T12:51:29.414Z,6.90
2019-02-12T12:54:00.501Z,6.90
2019-02-12T12:56:30.945Z,6.90
2019-02-12T12:59:01.268Z,6.90
2019-02-12T13:01:31.646Z,6.80
2019-02-12T13:04:02.152Z,6.80
2019-02-12T13:06:33.306Z,7.00
2019-02-12T13:09:04.449Z,6.90
2019-02-12T13:11:35.848Z,6.90
2019-02-12T13:14:26.634Z,6.90
2019-02-12T13:16:57.017Z,6.90
2019-02-12T13:19:29.125Z,6.80
2019-02-12T13:21:59.610Z,6.80
2019-02-12T13:24:29.981Z,6.80
2019-02-12T13:27:00.370Z,6.90
2019-02-12T13:29:31.516Z,7.00
2019-02-12T13:32:02.673Z,7.10
2019-02-12T13:34:33.066Z,7.10
2019-02-12T13:37:03.669Z,7.20
2019-02-12T13:39:34.019Z,7.20
2019-02-12T13:42:04.401Z,7.20
2019-02-12T13:44:34.834Z,7.10
2019-02-12T13:47:05.404Z,7.20
2019-02-12T13:49:35.729Z,7.10
2019-02-12T13:52:06.111Z,7.10
2019-02-12T13:54:36.484Z,7.10
2019-02-12T13:57:06.926Z,7.10
2019-02-12T13:59:37.307Z,7.00
2019-02-12T14:02:07.746Z,7.10
2019-02-12T14:04:38.119Z,7.10
2019-02-12T14:07:08.436Z,7.10
2019-02-12T14:09:39.567Z,7.10
2019-02-12T14:12:09.950Z,7.10
2019-02-12T14:14:43.406Z,7.10
2019-02-12T14:17:14.603Z,7.10
2019-02-12T14:19:52.283Z,7.10
2019-02-12T14:25:05.999Z,7.20
2019-02-12T14:27:36.435Z,7.20
2019-02-12T14:30:09.734Z,7.10
2019-02-12T14:32:40.940Z,7.10
2019-02-12T14:35:11.327Z,7.00
2019-02-12T14:37:42.055Z,7.10
2019-02-12T14:40:17.581Z,7.10
2019-02-12T14:42:48.748Z,7.20
2019-02-12T14:45:19.377Z,7.20
2019-02-12T14:47:49.873Z,7.10
2019-02-12T14:50:20.258Z,7.10
2019-02-12T14:52:56.074Z,7.10
2019-02-12T14:55:33.631Z,7.10
2019-02-12T14:57:57.733Z,7.10
2019-02-12T15:00:28.184Z,7.10
2019-02-12T15:02:58.565Z,7.00
2019-02-12T15:05:28.992Z,7.00
2019-02-12T15:07:59.442Z,7.00
2019-02-12T15:10:29.765Z,7.00
2019-02-12T15:13:00.199Z,7.00
2019-02-12T15:15:30.620Z,6.90
2019-02-12T15:18:00.997Z,7.40
2019-02-12T15:20:31.579Z,7.30
2019-02-12T15:23:02.020Z,7.10
2019-02-12T15:25:33.247Z,6.80
2019-02-12T15:28:03.562Z,6.80
2019-02-12T15:30:35.998Z,6.90
2019-02-12T15:33:06.381Z,6.90
2019-02-12T15:35:36.772Z,6.80
2019-02-12T15:38:08.301Z,6.80
2019-02-12T15:40:38.728Z,6.70
2019-02-12T15:43:09.187Z,6.70
2019-02-12T15:46:00.044Z,6.70
2019-02-12T15:48:31.190Z,6.60
2019-02-12T15:51:01.589Z,6.60
2019-02-12T15:53:32.069Z,6.60
2019-02-12T15:56:02.499Z,6.80
2019-02-12T15:58:32.971Z,6.80
2019-02-12T16:01:04.485Z,6.60
2019-02-12T16:03:34.576Z,6.60
2019-02-12T16:06:04.167Z,6.50
2019-02-12T16:08:36.557Z,6.40
2019-02-12T16:11:06.949Z,6.50
2019-02-12T16:13:38.315Z,6.40
2019-02-12T16:16:09.917Z,6.40
2019-02-12T16:18:39.982Z,6.50
2019-02-12T16:21:10.322Z,6.50
2019-02-12T16:23:41.496Z,6.50
2019-02-12T16:26:11.881Z,6.50
2019-02-12T16:28:42.277Z,6.50
2019-02-12T16:31:12.894Z,6.50
2019-02-12T16:33:45.341Z,6.50
2019-02-12T16:36:15.728Z,6.40
2019-02-12T16:38:46.179Z,6.40
2019-02-12T16:41:16.623Z,6.40
2019-02-12T16:43:47.010Z,6.30
2019-02-12T16:46:17.403Z,6.30
2019-02-12T16:48:48.116Z,6.30
2019-02-12T16:51:20.066Z,6.30
2019-02-12T16:53:50.455Z,6.30
2019-02-12T16:56:20.911Z,6.30
2019-02-12T16:58:52.063Z,6.20
2019-02-12T17:01:22.521Z,6.20
2019-02-12T17:03:52.924Z,6.20
2019-02-12T17:06:24.137Z,6.10
2019-02-12T17:08:54.475Z,6.10
2019-02-12T17:11:25.759Z,6.00
2019-02-12T17:13:56.079Z,6.00
2019-02-12T17:16:28.531Z,6.00
2019-02-12T17:18:59.789Z,6.10
2019-02-12T17:21:30.394Z,6.10
2019-02-12T17:24:01.034Z,6.00
2019-02-12T17:26:32.273Z,5.90
2019-02-12T17:29:02.667Z,5.80
2019-02-12T17:31:52.442Z,5.70
2019-02-12T17:34:29.926Z,5.80
2019-02-12T17:37:03.451Z,5.60
2019-02-12T17:39:33.940Z,5.60
2019-02-12T17:42:04.510Z,5.50
2019-02-12T17:44:34.985Z,5.50
2019-02-12T17:47:06.160Z,5.30
2019-02-12T17:49:36.548Z,5.30
2019-02-12T17:52:08.757Z,5.30
2019-02-12T17:54:39.157Z,5.30
2019-02-12T17:57:09.480Z,5.20
2019-02-12T17:59:40.121Z,5.30
2019-02-12T18:02:10.575Z,5.20
2019-02-12T18:04:44.031Z,5.20
2019-02-12T18:07:14.619Z,5.10
2019-02-12T18:09:45.000Z,5.10
2019-02-12T18:12:16.173Z,5.10
2019-02-12T18:14:46.522Z,5.10
2019-02-12T18:17:17.151Z,5.20
2019-02-12T18:19:47.719Z,5.20
2019-02-12T18:22:18.946Z,5.10
2019-02-12T18:24:49.274Z,5.00
2019-02-12T18:30:06.035Z,5.00
2019-02-12T18:32:36.487Z,4.90
2019-02-12T18:35:07.066Z,4.90
2019-02-12T18:37:37.687Z,5.00
2019-02-12T18:40:08.344Z,5.00
2019-02-12T18:42:38.749Z,5.00
2019-02-12T18:45:09.216Z,5.00
2019-02-12T18:47:39.550Z,5.10
2019-02-12T18:50:10.213Z,5.10
2019-02-12T18:52:40.627Z,5.00
2019-02-12T18:55:16.042Z,5.00
2019-02-12T18:57:46.441Z,5.00
2019-02-12T19:00:16.910Z,5.00
2019-02-12T19:02:47.316Z,4.90
2019-02-12T19:05:19.686Z,4.90
2019-02-12T19:07:50.958Z,5.60
2019-02-12T19:10:21.340Z,5.50
2019-02-12T19:12:51.731Z,5.00
2019-02-12T19:15:28.331Z,5.00
2019-02-12T19:17:58.990Z,5.00
2019-02-12T19:20:29.415Z,4.80
2019-02-12T19:23:00.765Z,4.70
2019-02-12T19:25:31.165Z,4.70
2019-02-12T19:28:01.603Z,4.70
2019-02-12T19:30:32.051Z,4.80
2019-02-12T19:33:03.194Z,4.80
2019-02-12T19:35:34.552Z,4.60
2019-02-12T19:38:05.176Z,4.60
2019-02-12T19:40:40.612Z,4.50
2019-02-12T19:43:12.182Z,4.50
2019-02-12T19:45:42.572Z,4.50
2019-02-12T19:48:12.957Z,4.70
2019-02-12T19:50:43.399Z,4.60
2019-02-12T19:53:19.917Z,4.70
2019-02-12T19:55:50.363Z,4.70
2019-02-12T19:58:20.750Z,4.80
2019-02-12T20:00:51.136Z,4.70
2019-02-12T20:03:21.537Z,4.70
2019-02-12T20:05:52.738Z,4.60
2019-02-12T20:08:23.310Z,4.60
2019-02-12T20:10:53.702Z,4.80
2019-02-12T20:13:24.137Z,4.70
2019-02-12T20:15:55.481Z,4.80
2019-02-12T20:18:25.811Z,4.60
2019-02-12T20:20:56.250Z,4.70
2019-02-12T20:23:27.410Z,4.60
2019-02-12T20:25:58.601Z,4.60
2019-02-12T20:28:31.042Z,4.60
2019-02-12T20:31:01.428Z,4.60
2019-02-12T20:33:31.889Z,4.50
2019-02-12T20:36:03.351Z,4.40
2019-02-12T20:38:33.683Z,4.40
2019-02-12T20:41:04.037Z,4.40
2019-02-12T20:43:41.711Z,4.40
2019-02-12T20:46:12.040Z,4.40
2019-02-12T20:48:42.376Z,4.30
2019-02-12T20:51:16.869Z,4.30
2019-02-12T20:53:47.248Z,4.40
2019-02-12T20:56:17.687Z,4.40
2019-02-12T20:58:48.010Z,4.40
2019-02-12T21:01:18.398Z,4.40
2019-02-12T21:03:49.105Z,4.40
2019-02-12T21:06:19.559Z,4.40
2019-02-12T21:08:50.986Z,4.40
2019-02-12T21:11:21.603Z,4.40
2019-02-12T21:13:52.984Z,4.30
2019-02-12T21:16:23.365Z,4.30
2019-02-12T21:18:54.820Z,4.30
2019-02-12T21:21:25.407Z,4.40
2019-02-12T21:24:03.005Z,4.20
2019-02-12T21:26:37.489Z,4.30
2019-02-12T21:29:08.643Z,4.40
2019-02-12T21:31:39.024Z,4.40
2019-02-12T21:34:09.415Z,4.40
2019-02-12T21:36:39.784Z,4.40
2019-02-12T21:39:10.173Z,4.40
2019-02-12T21:41:45.797Z,4.40
2019-02-12T21:44:16.954Z,4.30
2019-02-12T21:46:47.337Z,4.30
2019-02-12T21:49:17.771Z,4.30
2019-02-12T21:51:48.938Z,4.30
2019-02-12T21:54:19.263Z,4.30
2019-02-12T21:56:49.779Z,4.30
2019-02-12T21:59:20.870Z,4.20
2019-02-12T22:02:11.439Z,4.20
2019-02-12T22:04:41.761Z,4.20
2019-02-12T22:07:12.384Z,4.20
2019-02-12T22:09:43.515Z,4.30
2019-02-12T22:12:14.600Z,4.30
2019-02-12T22:14:44.987Z,4.30
2019-02-12T22:17:16.459Z,4.30
2019-02-12T22:19:46.839Z,4.30
2019-02-12T22:22:17.262Z,4.30
2019-02-12T22:24:47.651Z,4.20
2019-02-12T22:27:18.040Z,4.30
2019-02-12T22:29:48.558Z,4.10
2019-02-12T22:32:18.944Z,4.00
2019-02-12T22:37:33.058Z,4.00
2019-02-12T22:40:03.365Z,4.00
2019-02-12T22:42:33.809Z,4.00
2019-02-12T22:45:04.192Z,4.00
2019-02-12T22:47:38.737Z,4.00
2019-02-12T22:50:09.123Z,4.00
2019-02-12T22:52:39.565Z,4.00
2019-02-12T22:55:09.909Z,3.80
2019-02-12T22:58:00.665Z,3.70
2019-02-12T23:00:45.311Z,3.80
2019-02-12T23:03:16.525Z,3.80
2019-02-12T23:05:47.931Z,3.80
2019-02-12T23:08:20.734Z,3.90
2019-02-12T23:10:51.061Z,3.80
2019-02-12T23:13:21.479Z,3.90
2019-02-12T23:15:51.859Z,3.70
2019-02-12T23:18:22.523Z,3.70
2019-02-12T23:20:53.676Z,3.60
2019-02-12T23:23:24.056Z,3.60
2019-02-12T23:25:54.722Z,3.70
2019-02-12T23:28:25.813Z,3.60
2019-02-12T23:31:04.071Z,3.60
2019-02-12T23:33:34.463Z,3.60
2019-02-12T23:36:04.841Z,3.70
2019-02-12T23:38:35.565Z,3.60
2019-02-12T23:41:06.652Z,3.60
2019-02-12T23:43:37.105Z,3.60
2019-02-12T23:46:07.493Z,3.60
2019-02-12T23:48:40.348Z,3.70
2019-02-12T23:51:11.499Z,3.70
2019-02-12T23:53:41.891Z,3.70
2019-02-12T23:56:12.498Z,3.80
2019-02-12T23:58:45.958Z,3.80
